sensor_id;sensor_type;location;lat;lon;timestamp;P1;durP1;ratioP1;P2;durP2;ratioP2
17382;SDS011;8809;51.892;8.384;2022-10-28T00:00:47;1.15;;;1.05;;
17382;SDS011;8809;51.892;8.384;2022-10-28T00:03:15;1.30;;;1.02;;
17382;SDS011;8809;51.892;8.384;2022-10-28T00:05:43;1.20;;;1.10;;
17382;SDS011;8809;51.892;8.384;2022-10-28T00:08:11;1.75;;;1.10;;
17382;SDS011;8809;51.892;8.384;2022-10-28T00:10:38;1.10;;;1.00;;
17382;SDS011;8809;51.892;8.384;2022-10-28T00:13:06;1.30;;;1.15;;
17382;SDS011;8809;51.892;8.384;2022-10-28T00:15:34;1.27;;;1.17;;
17382;SDS011;8809;51.892;8.384;2022-10-28T00:18:01;1.20;;;1.10;;
17382;SDS011;8809;51.892;8.384;2022-10-28T00:20:28;1.17;;;1.08;;
17382;SDS011;8809;51.892;8.384;2022-10-28T00:22:56;1.30;;;1.15;;
17382;SDS011;8809;51.892;8.384;2022-10-28T00:25:23;1.08;;;0.98;;
17382;SDS011;8809;51.892;8.384;2022-10-28T00:27:50;1.38;;;1.27;;
17382;SDS011;8809;51.892;8.384;2022-10-28T00:30:18;1.65;;;1.23;;
17382;SDS011;8809;51.892;8.384;2022-10-28T00:32:45;1.20;;;1.10;;
17382;SDS011;8809;51.892;8.384;2022-10-28T00:35:12;0.98;;;0.90;;
17382;SDS011;8809;51.892;8.384;2022-10-28T00:37:39;1.20;;;1.02;;
17382;SDS011;8809;51.892;8.384;2022-10-28T00:40:10;0.98;;;0.88;;
17382;SDS011;8809;51.892;8.384;2022-10-28T00:42:39;1.20;;;1.10;;
17382;SDS011;8809;51.892;8.384;2022-10-28T00:45:07;1.33;;;1.10;;
17382;SDS011;8809;51.892;8.384;2022-10-28T00:47:40;1.30;;;1.05;;
17382;SDS011;8809;51.892;8.384;2022-10-28T00:53:13;2.20;;;1.30;;
17382;SDS011;8809;51.892;8.384;2022-10-28T00:55:42;1.25;;;1.15;;
17382;SDS011;8809;51.892;8.384;2022-10-28T00:58:11;1.20;;;1.10;;
17382;SDS011;8809;51.892;8.384;2022-10-28T01:00:39;1.08;;;0.98;;
17382;SDS011;8809;51.892;8.384;2022-10-28T01:03:08;1.10;;;1.00;;
17382;SDS011;8809;51.892;8.384;2022-10-28T01:05:35;1.20;;;1.10;;
17382;SDS011;8809;51.892;8.384;2022-10-28T01:08:06;1.08;;;0.98;;
17382;SDS011;8809;51.892;8.384;2022-10-28T01:10:41;1.30;;;1.20;;
17382;SDS011;8809;51.892;8.384;2022-10-28T01:13:31;0.90;;;0.90;;
17382;SDS011;8809;51.892;8.384;2022-10-28T01:16:06;1.02;;;1.00;;
17382;SDS011;8809;51.892;8.384;2022-10-28T01:18:45;1.05;;;0.90;;
17382;SDS011;8809;51.892;8.384;2022-10-28T01:21:38;1.23;;;1.10;;
17382;SDS011;8809;51.892;8.384;2022-10-28T01:24:16;1.10;;;1.00;;
17382;SDS011;8809;51.892;8.384;2022-10-28T01:30:02;1.17;;;1.08;;
17382;SDS011;8809;51.892;8.384;2022-10-28T01:32:41;1.30;;;1.20;;
17382;SDS011;8809;51.892;8.384;2022-10-28T01:35:18;1.02;;;0.93;;
17382;SDS011;8809;51.892;8.384;2022-10-28T01:37:55;1.10;;;1.00;;
17382;SDS011;8809;51.892;8.384;2022-10-28T01:40:36;1.10;;;0.93;;
17382;SDS011;8809;51.892;8.384;2022-10-28T01:43:10;1.73;;;1.38;;
17382;SDS011;8809;51.892;8.384;2022-10-28T01:45:42;1.33;;;1.10;;
17382;SDS011;8809;51.892;8.384;2022-10-28T01:48:19;1.35;;;1.10;;
17382;SDS011;8809;51.892;8.384;2022-10-28T01:50:52;1.33;;;1.20;;
17382;SDS011;8809;51.892;8.384;2022-10-28T01:53:25;1.40;;;0.90;;
17382;SDS011;8809;51.892;8.384;2022-10-28T01:55:57;1.30;;;1.20;;
17382;SDS011;8809;51.892;8.384;2022-10-28T01:58:29;1.20;;;1.10;;
17382;SDS011;8809;51.892;8.384;2022-10-28T02:00:58;1.33;;;1.20;;
17382;SDS011;8809;51.892;8.384;2022-10-28T02:03:31;1.35;;;1.20;;
17382;SDS011;8809;51.892;8.384;2022-10-28T02:05:58;1.50;;;1.08;;
17382;SDS011;8809;51.892;8.384;2022-10-28T02:08:32;1.98;;;1.20;;
17382;SDS011;8809;51.892;8.384;2022-10-28T02:11:18;1.25;;;1.05;;
17382;SDS011;8809;51.892;8.384;2022-10-28T02:13:57;1.45;;;1.30;;
17382;SDS011;8809;51.892;8.384;2022-10-28T02:16:35;1.30;;;1.20;;
17382;SDS011;8809;51.892;8.384;2022-10-28T02:19:13;1.25;;;1.05;;
17382;SDS011;8809;51.892;8.384;2022-10-28T02:21:53;1.77;;;1.20;;
17382;SDS011;8809;51.892;8.384;2022-10-28T02:24:34;1.30;;;1.20;;
17382;SDS011;8809;51.892;8.384;2022-10-28T02:27:15;1.50;;;1.40;;
17382;SDS011;8809;51.892;8.384;2022-10-28T02:29:48;1.33;;;1.10;;
17382;SDS011;8809;51.892;8.384;2022-10-28T02:32:19;2.45;;;1.38;;
17382;SDS011;8809;51.892;8.384;2022-10-28T02:34:53;1.20;;;1.10;;
17382;SDS011;8809;51.892;8.384;2022-10-28T02:37:25;1.25;;;1.10;;
17382;SDS011;8809;51.892;8.384;2022-10-28T02:39:56;1.23;;;1.13;;
17382;SDS011;8809;51.892;8.384;2022-10-28T02:42:27;1.33;;;1.17;;
17382;SDS011;8809;51.892;8.384;2022-10-28T02:44:58;1.55;;;1.10;;
17382;SDS011;8809;51.892;8.384;2022-10-28T02:47:33;1.42;;;1.10;;
17382;SDS011;8809;51.892;8.384;2022-10-28T02:50:07;1.40;;;1.00;;
17382;SDS011;8809;51.892;8.384;2022-10-28T02:52:40;1.67;;;1.38;;
17382;SDS011;8809;51.892;8.384;2022-10-28T02:55:14;1.40;;;1.27;;
17382;SDS011;8809;51.892;8.384;2022-10-28T02:57:43;1.73;;;1.33;;
17382;SDS011;8809;51.892;8.384;2022-10-28T03:00:17;2.78;;;1.40;;
17382;SDS011;8809;51.892;8.384;2022-10-28T03:02:46;1.67;;;1.50;;
17382;SDS011;8809;51.892;8.384;2022-10-28T03:05:15;2.25;;;1.60;;
17382;SDS011;8809;51.892;8.384;2022-10-28T03:07:43;1.30;;;1.20;;
17382;SDS011;8809;51.892;8.384;2022-10-28T03:10:10;1.80;;;1.40;;
17382;SDS011;8809;51.892;8.384;2022-10-28T03:12:36;1.60;;;1.40;;
17382;SDS011;8809;51.892;8.384;2022-10-28T03:15:03;1.60;;;1.50;;
17382;SDS011;8809;51.892;8.384;2022-10-28T03:17:31;1.83;;;1.50;;
17382;SDS011;8809;51.892;8.384;2022-10-28T03:19:58;2.13;;;1.48;;
17382;SDS011;8809;51.892;8.384;2022-10-28T03:22:26;1.48;;;1.30;;
17382;SDS011;8809;51.892;8.384;2022-10-28T03:24:53;1.88;;;1.50;;
17382;SDS011;8809;51.892;8.384;2022-10-28T03:27:20;2.10;;;1.45;;
17382;SDS011;8809;51.892;8.384;2022-10-28T03:29:47;1.92;;;1.65;;
17382;SDS011;8809;51.892;8.384;2022-10-28T03:32:14;2.10;;;1.60;;
17382;SDS011;8809;51.892;8.384;2022-10-28T03:34:41;1.70;;;1.45;;
17382;SDS011;8809;51.892;8.384;2022-10-28T03:37:08;1.30;;;1.20;;
17382;SDS011;8809;51.892;8.384;2022-10-28T03:39:36;1.23;;;1.13;;
17382;SDS011;8809;51.892;8.384;2022-10-28T03:42:03;2.15;;;1.65;;
17382;SDS011;8809;51.892;8.384;2022-10-28T03:44:30;1.30;;;1.20;;
17382;SDS011;8809;51.892;8.384;2022-10-28T03:46:57;1.58;;;1.48;;
17382;SDS011;8809;51.892;8.384;2022-10-28T03:49:24;1.45;;;1.33;;
17382;SDS011;8809;51.892;8.384;2022-10-28T03:51:51;1.95;;;1.40;;
17382;SDS011;8809;51.892;8.384;2022-10-28T03:54:18;2.10;;;1.63;;
17382;SDS011;8809;51.892;8.384;2022-10-28T03:56:46;2.25;;;1.73;;
17382;SDS011;8809;51.892;8.384;2022-10-28T03:59:13;1.52;;;1.25;;
17382;SDS011;8809;51.892;8.384;2022-10-28T04:01:40;2.17;;;1.50;;
17382;SDS011;8809;51.892;8.384;2022-10-28T04:04:07;1.42;;;1.33;;
17382;SDS011;8809;51.892;8.384;2022-10-28T04:06:34;1.63;;;1.23;;
17382;SDS011;8809;51.892;8.384;2022-10-28T04:09:01;1.60;;;1.50;;
17382;SDS011;8809;51.892;8.384;2022-10-28T04:11:28;1.40;;;1.30;;
17382;SDS011;8809;51.892;8.384;2022-10-28T04:13:56;1.67;;;1.40;;
17382;SDS011;8809;51.892;8.384;2022-10-28T04:16:23;1.40;;;1.20;;
17382;SDS011;8809;51.892;8.384;2022-10-28T04:18:50;1.10;;;1.00;;
17382;SDS011;8809;51.892;8.384;2022-10-28T04:21:17;1.52;;;1.30;;
17382;SDS011;8809;51.892;8.384;2022-10-28T04:23:44;1.35;;;1.25;;
17382;SDS011;8809;51.892;8.384;2022-10-28T04:26:11;1.60;;;1.10;;
17382;SDS011;8809;51.892;8.384;2022-10-28T04:28:38;1.23;;;1.13;;
17382;SDS011;8809;51.892;8.384;2022-10-28T04:31:07;1.20;;;1.10;;
17382;SDS011;8809;51.892;8.384;2022-10-28T04:33:34;1.10;;;1.00;;
17382;SDS011;8809;51.892;8.384;2022-10-28T04:36:04;1.30;;;1.10;;
17382;SDS011;8809;51.892;8.384;2022-10-28T04:38:32;1.20;;;1.10;;
17382;SDS011;8809;51.892;8.384;2022-10-28T04:40:59;1.17;;;1.08;;
17382;SDS011;8809;51.892;8.384;2022-10-28T04:43:26;1.23;;;1.10;;
17382;SDS011;8809;51.892;8.384;2022-10-28T04:45:53;1.17;;;1.02;;
17382;SDS011;8809;51.892;8.384;2022-10-28T04:48:21;1.20;;;1.08;;
17382;SDS011;8809;51.892;8.384;2022-10-28T04:50:48;2.47;;;1.42;;
17382;SDS011;8809;51.892;8.384;2022-10-28T04:53:15;1.23;;;1.10;;
17382;SDS011;8809;51.892;8.384;2022-10-28T04:55:42;1.25;;;1.10;;
17382;SDS011;8809;51.892;8.384;2022-10-28T04:58:09;1.60;;;1.30;;
17382;SDS011;8809;51.892;8.384;2022-10-28T05:00:36;1.20;;;1.10;;
17382;SDS011;8809;51.892;8.384;2022-10-28T05:03:03;1.15;;;1.05;;
17382;SDS011;8809;51.892;8.384;2022-10-28T05:05:31;1.42;;;1.13;;
17382;SDS011;8809;51.892;8.384;2022-10-28T05:07:59;1.33;;;1.10;;
17382;SDS011;8809;51.892;8.384;2022-10-28T05:10:26;1.45;;;1.20;;
17382;SDS011;8809;51.892;8.384;2022-10-28T05:12:53;1.50;;;1.30;;
17382;SDS011;8809;51.892;8.384;2022-10-28T05:15:20;2.40;;;1.30;;
17382;SDS011;8809;51.892;8.384;2022-10-28T05:17:46;2.42;;;1.42;;
17382;SDS011;8809;51.892;8.384;2022-10-28T05:20:15;1.33;;;1.23;;
17382;SDS011;8809;51.892;8.384;2022-10-28T05:22:45;1.70;;;1.33;;
17382;SDS011;8809;51.892;8.384;2022-10-28T05:25:13;1.60;;;1.30;;
17382;SDS011;8809;51.892;8.384;2022-10-28T05:27:40;1.52;;;1.40;;
17382;SDS011;8809;51.892;8.384;2022-10-28T05:30:10;1.55;;;1.45;;
17382;SDS011;8809;51.892;8.384;2022-10-28T05:32:40;1.45;;;1.30;;
17382;SDS011;8809;51.892;8.384;2022-10-28T05:35:08;2.08;;;1.60;;
17382;SDS011;8809;51.892;8.384;2022-10-28T05:37:35;2.13;;;1.52;;
17382;SDS011;8809;51.892;8.384;2022-10-28T05:40:04;1.67;;;1.35;;
17382;SDS011;8809;51.892;8.384;2022-10-28T05:42:39;1.50;;;1.40;;
17382;SDS011;8809;51.892;8.384;2022-10-28T05:45:06;3.33;;;2.00;;
17382;SDS011;8809;51.892;8.384;2022-10-28T05:47:34;2.70;;;1.98;;
17382;SDS011;8809;51.892;8.384;2022-10-28T05:50:01;2.28;;;1.90;;
17382;SDS011;8809;51.892;8.384;2022-10-28T05:52:28;2.53;;;1.77;;
17382;SDS011;8809;51.892;8.384;2022-10-28T05:54:54;2.22;;;1.80;;
17382;SDS011;8809;51.892;8.384;2022-10-28T05:57:23;1.80;;;1.40;;
17382;SDS011;8809;51.892;8.384;2022-10-28T05:59:50;2.92;;;1.80;;
17382;SDS011;8809;51.892;8.384;2022-10-28T06:02:16;2.40;;;1.60;;
17382;SDS011;8809;51.892;8.384;2022-10-28T06:04:44;2.17;;;1.55;;
17382;SDS011;8809;51.892;8.384;2022-10-28T06:07:11;3.05;;;1.83;;
17382;SDS011;8809;51.892;8.384;2022-10-28T06:09:38;2.00;;;1.58;;
17382;SDS011;8809;51.892;8.384;2022-10-28T06:12:05;1.80;;;1.50;;
17382;SDS011;8809;51.892;8.384;2022-10-28T06:14:34;1.67;;;1.58;;
17382;SDS011;8809;51.892;8.384;2022-10-28T06:17:01;2.38;;;1.58;;
17382;SDS011;8809;51.892;8.384;2022-10-28T06:19:28;2.38;;;1.70;;
17382;SDS011;8809;51.892;8.384;2022-10-28T06:21:55;3.78;;;1.80;;
17382;SDS011;8809;51.892;8.384;2022-10-28T06:24:24;2.10;;;1.75;;
17382;SDS011;8809;51.892;8.384;2022-10-28T06:26:51;2.08;;;1.67;;
17382;SDS011;8809;51.892;8.384;2022-10-28T06:29:18;2.55;;;1.60;;
17382;SDS011;8809;51.892;8.384;2022-10-28T06:31:47;2.92;;;1.60;;
17382;SDS011;8809;51.892;8.384;2022-10-28T06:34:14;2.13;;;1.40;;
17382;SDS011;8809;51.892;8.384;2022-10-28T06:36:41;2.25;;;1.50;;
17382;SDS011;8809;51.892;8.384;2022-10-28T06:39:08;2.50;;;1.58;;
17382;SDS011;8809;51.892;8.384;2022-10-28T06:41:35;1.75;;;1.40;;
17382;SDS011;8809;51.892;8.384;2022-10-28T06:44:02;2.45;;;1.65;;
17382;SDS011;8809;51.892;8.384;2022-10-28T06:46:29;1.67;;;1.50;;
17382;SDS011;8809;51.892;8.384;2022-10-28T06:48:58;1.70;;;1.48;;
17382;SDS011;8809;51.892;8.384;2022-10-28T06:51:27;2.13;;;1.60;;
17382;SDS011;8809;51.892;8.384;2022-10-28T06:53:55;2.17;;;1.73;;
17382;SDS011;8809;51.892;8.384;2022-10-28T06:56:22;1.77;;;1.52;;
17382;SDS011;8809;51.892;8.384;2022-10-28T06:58:49;3.08;;;1.77;;
17382;SDS011;8809;51.892;8.384;2022-10-28T07:01:16;1.60;;;1.50;;
17382;SDS011;8809;51.892;8.384;2022-10-28T07:03:43;2.50;;;1.60;;
17382;SDS011;8809;51.892;8.384;2022-10-28T07:06:13;2.65;;;1.90;;
17382;SDS011;8809;51.892;8.384;2022-10-28T07:08:41;1.88;;;1.60;;
17382;SDS011;8809;51.892;8.384;2022-10-28T07:11:08;2.70;;;1.92;;
17382;SDS011;8809;51.892;8.384;2022-10-28T07:13:35;2.45;;;1.77;;
17382;SDS011;8809;51.892;8.384;2022-10-28T07:16:02;3.40;;;1.73;;
17382;SDS011;8809;51.892;8.384;2022-10-28T07:18:30;2.90;;;1.83;;
17382;SDS011;8809;51.892;8.384;2022-10-28T07:20:57;2.13;;;1.67;;
17382;SDS011;8809;51.892;8.384;2022-10-28T07:23:26;5.28;;;1.83;;
17382;SDS011;8809;51.892;8.384;2022-10-28T07:25:55;2.42;;;1.60;;
17382;SDS011;8809;51.892;8.384;2022-10-28T07:28:23;2.42;;;1.98;;
17382;SDS011;8809;51.892;8.384;2022-10-28T07:30:51;2.92;;;1.50;;
17382;SDS011;8809;51.892;8.384;2022-10-28T07:33:18;2.50;;;1.98;;
17382;SDS011;8809;51.892;8.384;2022-10-28T07:35:45;3.42;;;2.00;;
17382;SDS011;8809;51.892;8.384;2022-10-28T07:38:12;1.60;;;1.50;;
17382;SDS011;8809;51.892;8.384;2022-10-28T07:40:41;2.50;;;1.70;;
17382;SDS011;8809;51.892;8.384;2022-10-28T07:43:09;3.03;;;2.33;;
17382;SDS011;8809;51.892;8.384;2022-10-28T07:45:39;2.25;;;1.70;;
17382;SDS011;8809;51.892;8.384;2022-10-28T07:48:06;2.55;;;2.10;;
17382;SDS011;8809;51.892;8.384;2022-10-28T07:50:33;3.22;;;2.40;;
17382;SDS011;8809;51.892;8.384;2022-10-28T07:53:00;2.33;;;2.03;;
17382;SDS011;8809;51.892;8.384;2022-10-28T07:55:26;3.67;;;2.10;;
17382;SDS011;8809;51.892;8.384;2022-10-28T07:57:55;2.88;;;2.17;;
17382;SDS011;8809;51.892;8.384;2022-10-28T08:00:22;2.28;;;2.08;;
17382;SDS011;8809;51.892;8.384;2022-10-28T08:02:49;3.03;;;1.95;;
17382;SDS011;8809;51.892;8.384;2022-10-28T08:05:16;3.25;;;2.17;;
17382;SDS011;8809;51.892;8.384;2022-10-28T08:07:43;4.22;;;2.45;;
17382;SDS011;8809;51.892;8.384;2022-10-28T08:10:11;3.50;;;2.28;;
17382;SDS011;8809;51.892;8.384;2022-10-28T08:12:40;3.10;;;2.40;;
17382;SDS011;8809;51.892;8.384;2022-10-28T08:15:09;3.33;;;2.50;;
17382;SDS011;8809;51.892;8.384;2022-10-28T08:17:37;3.22;;;2.30;;
17382;SDS011;8809;51.892;8.384;2022-10-28T08:20:04;5.25;;;2.95;;
17382;SDS011;8809;51.892;8.384;2022-10-28T08:22:33;5.20;;;3.05;;
17382;SDS011;8809;51.892;8.384;2022-10-28T08:25:00;6.22;;;3.30;;
17382;SDS011;8809;51.892;8.384;2022-10-28T08:27:27;4.72;;;2.72;;
17382;SDS011;8809;51.892;8.384;2022-10-28T08:29:54;4.10;;;2.40;;
17382;SDS011;8809;51.892;8.384;2022-10-28T08:32:22;3.40;;;2.80;;
17382;SDS011;8809;51.892;8.384;2022-10-28T08:34:49;4.00;;;2.97;;
17382;SDS011;8809;51.892;8.384;2022-10-28T08:37:16;4.05;;;2.53;;
17382;SDS011;8809;51.892;8.384;2022-10-28T08:39:44;4.63;;;2.65;;
17382;SDS011;8809;51.892;8.384;2022-10-28T08:42:24;3.60;;;2.38;;
17382;SDS011;8809;51.892;8.384;2022-10-28T08:47:54;5.00;;;2.92;;
17382;SDS011;8809;51.892;8.384;2022-10-28T08:50:33;4.32;;;2.75;;
17382;SDS011;8809;51.892;8.384;2022-10-28T08:53:12;4.28;;;3.47;;
17382;SDS011;8809;51.892;8.384;2022-10-28T08:55:42;5.88;;;3.58;;
17382;SDS011;8809;51.892;8.384;2022-10-28T08:58:14;5.03;;;2.50;;
17382;SDS011;8809;51.892;8.384;2022-10-28T09:00:45;6.10;;;3.25;;
17382;SDS011;8809;51.892;8.384;2022-10-28T09:03:18;4.85;;;2.92;;
17382;SDS011;8809;51.892;8.384;2022-10-28T09:05:48;4.70;;;2.83;;
17382;SDS011;8809;51.892;8.384;2022-10-28T09:08:23;4.32;;;2.80;;
17382;SDS011;8809;51.892;8.384;2022-10-28T09:11:05;5.13;;;3.10;;
17382;SDS011;8809;51.892;8.384;2022-10-28T09:13:59;4.60;;;2.58;;
17382;SDS011;8809;51.892;8.384;2022-10-28T09:16:38;4.75;;;2.58;;
17382;SDS011;8809;51.892;8.384;2022-10-28T09:19:14;4.32;;;2.75;;
17382;SDS011;8809;51.892;8.384;2022-10-28T09:21:54;4.13;;;2.42;;
17382;SDS011;8809;51.892;8.384;2022-10-28T09:24:37;3.85;;;2.47;;
17382;SDS011;8809;51.892;8.384;2022-10-28T09:27:11;4.22;;;2.50;;
17382;SDS011;8809;51.892;8.384;2022-10-28T09:29:49;3.80;;;2.60;;
17382;SDS011;8809;51.892;8.384;2022-10-28T09:32:28;5.25;;;2.78;;
17382;SDS011;8809;51.892;8.384;2022-10-28T09:35:09;4.00;;;2.40;;
17382;SDS011;8809;51.892;8.384;2022-10-28T09:37:39;4.78;;;2.33;;
17382;SDS011;8809;51.892;8.384;2022-10-28T09:40:14;5.55;;;2.83;;
17382;SDS011;8809;51.892;8.384;2022-10-28T09:42:44;4.72;;;2.30;;
17382;SDS011;8809;51.892;8.384;2022-10-28T09:45:17;4.88;;;2.97;;
17382;SDS011;8809;51.892;8.384;2022-10-28T09:47:48;4.47;;;2.55;;
17382;SDS011;8809;51.892;8.384;2022-10-28T09:50:23;6.82;;;3.00;;
17382;SDS011;8809;51.892;8.384;2022-10-28T09:52:56;5.35;;;3.25;;
17382;SDS011;8809;51.892;8.384;2022-10-28T09:55:29;6.07;;;3.10;;
17382;SDS011;8809;51.892;8.384;2022-10-28T09:57:57;4.10;;;2.60;;
17382;SDS011;8809;51.892;8.384;2022-10-28T10:00:24;5.53;;;3.10;;
17382;SDS011;8809;51.892;8.384;2022-10-28T10:02:56;8.05;;;2.92;;
17382;SDS011;8809;51.892;8.384;2022-10-28T10:05:25;6.03;;;2.90;;
17382;SDS011;8809;51.892;8.384;2022-10-28T10:07:56;7.20;;;3.20;;
17382;SDS011;8809;51.892;8.384;2022-10-28T10:10:30;5.53;;;3.30;;
17382;SDS011;8809;51.892;8.384;2022-10-28T10:13:02;7.90;;;3.42;;
17382;SDS011;8809;51.892;8.384;2022-10-28T10:15:32;5.38;;;3.22;;
17382;SDS011;8809;51.892;8.384;2022-10-28T10:18:03;5.28;;;2.90;;
17382;SDS011;8809;51.892;8.384;2022-10-28T10:20:46;5.25;;;2.88;;
17382;SDS011;8809;51.892;8.384;2022-10-28T10:23:20;6.20;;;2.72;;
17382;SDS011;8809;51.892;8.384;2022-10-28T10:25:53;5.88;;;3.05;;
17382;SDS011;8809;51.892;8.384;2022-10-28T10:28:21;6.90;;;3.05;;
17382;SDS011;8809;51.892;8.384;2022-10-28T10:30:49;5.82;;;3.10;;
17382;SDS011;8809;51.892;8.384;2022-10-28T10:33:19;3.90;;;2.90;;
17382;SDS011;8809;51.892;8.384;2022-10-28T10:35:53;8.55;;;3.35;;
17382;SDS011;8809;51.892;8.384;2022-10-28T10:38:25;6.38;;;3.47;;
17382;SDS011;8809;51.892;8.384;2022-10-28T10:40:54;5.30;;;3.33;;
17382;SDS011;8809;51.892;8.384;2022-10-28T10:43:22;8.20;;;3.20;;
17382;SDS011;8809;51.892;8.384;2022-10-28T10:46:12;4.25;;;2.80;;
17382;SDS011;8809;51.892;8.384;2022-10-28T10:48:51;3.80;;;2.80;;
17382;SDS011;8809;51.892;8.384;2022-10-28T10:51:33;6.10;;;3.33;;
17382;SDS011;8809;51.892;8.384;2022-10-28T10:54:00;6.32;;;2.90;;
17382;SDS011;8809;51.892;8.384;2022-10-28T10:56:29;8.57;;;3.22;;
17382;SDS011;8809;51.892;8.384;2022-10-28T10:58:58;5.72;;;3.10;;
17382;SDS011;8809;51.892;8.384;2022-10-28T11:01:30;6.85;;;3.45;;
17382;SDS011;8809;51.892;8.384;2022-10-28T11:04:00;5.97;;;3.10;;
17382;SDS011;8809;51.892;8.384;2022-10-28T11:06:31;4.95;;;2.83;;
17382;SDS011;8809;51.892;8.384;2022-10-28T11:09:04;5.10;;;2.80;;
17382;SDS011;8809;51.892;8.384;2022-10-28T11:11:43;5.78;;;2.88;;
17382;SDS011;8809;51.892;8.384;2022-10-28T11:14:17;5.13;;;2.70;;
17382;SDS011;8809;51.892;8.384;2022-10-28T11:16:50;5.20;;;2.70;;
17382;SDS011;8809;51.892;8.384;2022-10-28T11:19:20;4.38;;;2.70;;
17382;SDS011;8809;51.892;8.384;2022-10-28T11:21:50;7.03;;;3.40;;
17382;SDS011;8809;51.892;8.384;2022-10-28T11:24:31;6.63;;;2.72;;
17382;SDS011;8809;51.892;8.384;2022-10-28T11:27:11;7.93;;;2.95;;
17382;SDS011;8809;51.892;8.384;2022-10-28T11:29:47;6.13;;;2.97;;
17382;SDS011;8809;51.892;8.384;2022-10-28T11:32:21;4.95;;;2.58;;
17382;SDS011;8809;51.892;8.384;2022-10-28T11:37:55;4.45;;;2.80;;
17382;SDS011;8809;51.892;8.384;2022-10-28T11:40:33;3.92;;;2.40;;
17382;SDS011;8809;51.892;8.384;2022-10-28T11:43:14;6.97;;;2.80;;
17382;SDS011;8809;51.892;8.384;2022-10-28T11:45:52;6.20;;;2.67;;
17382;SDS011;8809;51.892;8.384;2022-10-28T11:48:34;7.15;;;2.83;;
17382;SDS011;8809;51.892;8.384;2022-10-28T11:51:12;8.15;;;2.45;;
17382;SDS011;8809;51.892;8.384;2022-10-28T11:54:02;3.03;;;2.08;;
17382;SDS011;8809;51.892;8.384;2022-10-28T11:56:42;4.20;;;2.35;;
17382;SDS011;8809;51.892;8.384;2022-10-28T11:59:18;5.50;;;2.58;;
17382;SDS011;8809;51.892;8.384;2022-10-28T12:02:02;4.28;;;2.20;;
17382;SDS011;8809;51.892;8.384;2022-10-28T12:04:41;4.65;;;2.22;;
17382;SDS011;8809;51.892;8.384;2022-10-28T12:07:20;4.95;;;2.38;;
17382;SDS011;8809;51.892;8.384;2022-10-28T12:10:14;4.45;;;2.28;;
17382;SDS011;8809;51.892;8.384;2022-10-28T12:12:58;6.18;;;2.45;;
17382;SDS011;8809;51.892;8.384;2022-10-28T12:15:34;3.30;;;2.20;;
17382;SDS011;8809;51.892;8.384;2022-10-28T12:18:09;5.15;;;2.53;;
17382;SDS011;8809;51.892;8.384;2022-10-28T12:20:45;6.07;;;2.50;;
17382;SDS011;8809;51.892;8.384;2022-10-28T12:23:20;3.28;;;2.15;;
17382;SDS011;8809;51.892;8.384;2022-10-28T12:25:50;3.97;;;2.45;;
17382;SDS011;8809;51.892;8.384;2022-10-28T12:28:23;6.15;;;2.75;;
17382;SDS011;8809;51.892;8.384;2022-10-28T12:30:53;3.55;;;2.40;;
17382;SDS011;8809;51.892;8.384;2022-10-28T12:33:23;2.45;;;2.13;;
17382;SDS011;8809;51.892;8.384;2022-10-28T12:35:54;3.20;;;1.80;;
17382;SDS011;8809;51.892;8.384;2022-10-28T12:38:40;2.10;;;1.70;;
17382;SDS011;8809;51.892;8.384;2022-10-28T12:41:11;3.72;;;1.90;;
17382;SDS011;8809;51.892;8.384;2022-10-28T12:43:43;4.32;;;2.00;;
17382;SDS011;8809;51.892;8.384;2022-10-28T12:46:17;2.42;;;1.80;;
17382;SDS011;8809;51.892;8.384;2022-10-28T12:48:53;2.55;;;1.50;;
17382;SDS011;8809;51.892;8.384;2022-10-28T12:51:25;2.85;;;1.73;;
17382;SDS011;8809;51.892;8.384;2022-10-28T12:53:57;2.90;;;1.55;;
17382;SDS011;8809;51.892;8.384;2022-10-28T12:56:32;3.30;;;1.98;;
17382;SDS011;8809;51.892;8.384;2022-10-28T12:59:05;8.05;;;2.83;;
17382;SDS011;8809;51.892;8.384;2022-10-28T13:01:36;4.43;;;2.30;;
17382;SDS011;8809;51.892;8.384;2022-10-28T13:04:03;4.85;;;2.35;;
17382;SDS011;8809;51.892;8.384;2022-10-28T13:06:42;4.82;;;2.38;;
17382;SDS011;8809;51.892;8.384;2022-10-28T13:09:34;4.90;;;2.60;;
17382;SDS011;8809;51.892;8.384;2022-10-28T13:15:15;3.25;;;2.15;;
17382;SDS011;8809;51.892;8.384;2022-10-28T13:17:54;3.78;;;2.10;;
17382;SDS011;8809;51.892;8.384;2022-10-28T13:20:37;3.92;;;2.00;;
17382;SDS011;8809;51.892;8.384;2022-10-28T13:23:10;4.43;;;2.22;;
17382;SDS011;8809;51.892;8.384;2022-10-28T13:25:53;5.13;;;2.20;;
17382;SDS011;8809;51.892;8.384;2022-10-28T13:28:29;5.82;;;2.13;;
17382;SDS011;8809;51.892;8.384;2022-10-28T13:31:00;5.65;;;2.30;;
17382;SDS011;8809;51.892;8.384;2022-10-28T13:33:30;3.65;;;2.40;;
17382;SDS011;8809;51.892;8.384;2022-10-28T13:36:08;3.33;;;1.80;;
17382;SDS011;8809;51.892;8.384;2022-10-28T13:38:41;5.95;;;2.30;;
17382;SDS011;8809;51.892;8.384;2022-10-28T13:41:27;2.78;;;1.80;;
17382;SDS011;8809;51.892;8.384;2022-10-28T13:56:13;4.03;;;2.45;;
17382;SDS011;8809;51.892;8.384;2022-10-28T13:58:49;3.53;;;2.30;;
17382;SDS011;8809;51.892;8.384;2022-10-28T14:04:23;4.93;;;2.40;;
17382;SDS011;8809;51.892;8.384;2022-10-28T14:07:01;4.95;;;2.42;;
17382;SDS011;8809;51.892;8.384;2022-10-28T14:09:41;5.10;;;2.38;;
17382;SDS011;8809;51.892;8.384;2022-10-28T14:15:02;4.45;;;1.90;;
17382;SDS011;8809;51.892;8.384;2022-10-28T14:17:42;3.85;;;1.85;;
17382;SDS011;8809;51.892;8.384;2022-10-28T14:20:23;3.10;;;1.85;;
17382;SDS011;8809;51.892;8.384;2022-10-28T14:22:56;2.22;;;1.60;;
17382;SDS011;8809;51.892;8.384;2022-10-28T14:31:32;2.20;;;1.58;;
17382;SDS011;8809;51.892;8.384;2022-10-28T14:37:30;1.65;;;1.20;;
17382;SDS011;8809;51.892;8.384;2022-10-28T14:40:20;2.30;;;1.27;;
17382;SDS011;8809;51.892;8.384;2022-10-28T14:42:53;3.05;;;1.20;;
17382;SDS011;8809;51.892;8.384;2022-10-28T14:45:30;1.70;;;1.33;;
17382;SDS011;8809;51.892;8.384;2022-10-28T14:48:16;2.15;;;1.20;;
17382;SDS011;8809;51.892;8.384;2022-10-28T14:50:53;1.67;;;1.08;;
17382;SDS011;8809;51.892;8.384;2022-10-28T14:53:23;1.38;;;1.05;;
17382;SDS011;8809;51.892;8.384;2022-10-28T14:55:57;1.00;;;0.80;;
17382;SDS011;8809;51.892;8.384;2022-10-28T14:58:30;1.30;;;1.08;;
17382;SDS011;8809;51.892;8.384;2022-10-28T15:01:06;1.52;;;1.00;;
17382;SDS011;8809;51.892;8.384;2022-10-28T15:03:46;1.25;;;0.93;;
17382;SDS011;8809;51.892;8.384;2022-10-28T15:09:18;1.33;;;1.00;;
17382;SDS011;8809;51.892;8.384;2022-10-28T15:11:48;1.48;;;0.93;;
17382;SDS011;8809;51.892;8.384;2022-10-28T15:14:30;1.70;;;1.30;;
17382;SDS011;8809;51.892;8.384;2022-10-28T15:17:02;2.17;;;1.27;;
17382;SDS011;8809;51.892;8.384;2022-10-28T15:19:40;1.55;;;1.30;;
17382;SDS011;8809;51.892;8.384;2022-10-28T15:22:15;1.80;;;1.30;;
17382;SDS011;8809;51.892;8.384;2022-10-28T15:24:54;2.17;;;1.70;;
17382;SDS011;8809;51.892;8.384;2022-10-28T15:27:24;3.00;;;1.60;;
17382;SDS011;8809;51.892;8.384;2022-10-28T15:29:53;3.10;;;1.60;;
17382;SDS011;8809;51.892;8.384;2022-10-28T15:32:25;2.33;;;1.67;;
17382;SDS011;8809;51.892;8.384;2022-10-28T15:34:53;1.92;;;1.50;;
17382;SDS011;8809;51.892;8.384;2022-10-28T15:37:21;1.65;;;1.38;;
17382;SDS011;8809;51.892;8.384;2022-10-28T15:39:50;4.05;;;1.58;;
17382;SDS011;8809;51.892;8.384;2022-10-28T15:42:30;2.50;;;1.85;;
17382;SDS011;8809;51.892;8.384;2022-10-28T15:45:05;2.65;;;1.85;;
17382;SDS011;8809;51.892;8.384;2022-10-28T15:47:41;3.05;;;1.83;;
17382;SDS011;8809;51.892;8.384;2022-10-28T15:50:22;3.65;;;2.05;;
17382;SDS011;8809;51.892;8.384;2022-10-28T15:52:52;3.60;;;2.08;;
17382;SDS011;8809;51.892;8.384;2022-10-28T15:55:30;2.38;;;1.77;;
17382;SDS011;8809;51.892;8.384;2022-10-28T15:58:00;7.68;;;3.17;;
17382;SDS011;8809;51.892;8.384;2022-10-28T16:00:29;8.38;;;2.90;;
17382;SDS011;8809;51.892;8.384;2022-10-28T16:02:57;8.80;;;3.10;;
17382;SDS011;8809;51.892;8.384;2022-10-28T16:05:41;6.95;;;3.38;;
17382;SDS011;8809;51.892;8.384;2022-10-28T16:08:16;9.00;;;3.20;;
17382;SDS011;8809;51.892;8.384;2022-10-28T16:10:46;8.00;;;3.15;;
17382;SDS011;8809;51.892;8.384;2022-10-28T16:13:18;8.20;;;3.03;;